PH-0043 weather

SM Megamall Parking Building B Heliport
Mandaluyong, Philippines

Public forecast

Using degrees Celsius for public forecast. Weather courtesy of forecast.io.

METAR (pilot weather report)

Closest report is Ninoy Aquino International Airport, 4.9 nm (9.1 km) SSW. Retrieved 2019/07/21 07:00 UTC (44 minutes ago):

RPLL 210700Z 26010KT 230V290 9999 FEW022TCU SCT100 BKN250 31/25 Q1007 NOSIG RMK A2974 TCU N-NE

TAF (pilot weather forecast)

Closest forecast is Ninoy Aquino International Airport, 4.9 nm (9.1 km) SSW. Retrieved 2019/07/21 06:00 UTC (2 hours ago):

TAF RPLL 210500Z 2106/2212 26006KT 9999 FEW025 BKN300 TX32/2106Z TN27/2122Z TEMPO 2106/2112 27012KT FEW023CB BKN100 TEMPO 2112/2118 23006KT 8000 -SHRA SCT023 BKN100